createdAt,value
2023-01-04T00:00:24.297Z,8.68
2023-01-04T00:01:24.129Z,8.68
2023-01-04T00:02:24.175Z,8.64
2023-01-04T00:03:24.090Z,8.71
2023-01-04T00:04:24.007Z,8.76
2023-01-04T00:05:23.959Z,8.71
2023-01-04T00:06:23.949Z,8.73
2023-01-04T00:07:23.887Z,8.73
2023-01-04T00:08:23.828Z,8.83
2023-01-04T00:09:23.788Z,8.76
2023-01-04T00:10:23.743Z,8.68
2023-01-04T00:11:23.701Z,8.80
2023-01-04T00:12:23.661Z,8.75
2023-01-04T00:13:23.626Z,8.83
2023-01-04T00:14:23.577Z,8.80
2023-01-04T00:15:23.529Z,8.94
2023-01-04T00:16:23.599Z,8.83
2023-01-04T00:17:23.442Z,8.83
2023-01-04T00:18:23.414Z,8.78
2023-01-04T00:19:23.360Z,8.86
2023-01-04T00:20:23.322Z,8.85
2023-01-04T00:21:23.281Z,8.86
2023-01-04T00:22:23.232Z,8.98
2023-01-04T00:23:23.188Z,8.91
2023-01-04T00:24:23.159Z,8.97
2023-01-04T00:25:23.102Z,9.03
2023-01-04T00:26:23.062Z,9.01
2023-01-04T00:27:23.015Z,9.13
2023-01-04T00:28:22.977Z,9.00
2023-01-04T00:29:22.930Z,9.03
2023-01-04T00:30:22.900Z,9.03
2023-01-04T00:31:23.041Z,9.12
2023-01-04T00:32:22.804Z,9.15
2023-01-04T00:33:22.763Z,9.15
2023-01-04T00:34:22.721Z,9.23
2023-01-04T00:35:44.606Z,9.26
2023-01-04T00:36:22.659Z,9.24
2023-01-04T00:37:22.589Z,9.32
2023-01-04T00:38:22.552Z,9.40
2023-01-04T00:39:22.515Z,9.32
2023-01-04T00:40:22.478Z,9.27
2023-01-04T00:41:49.327Z,9.32
2023-01-04T00:42:22.389Z,9.30
2023-01-04T00:43:22.343Z,9.31
2023-01-04T00:44:22.300Z,9.24
2023-01-04T00:45:22.261Z,9.32
2023-01-04T00:46:22.265Z,9.15
2023-01-04T00:47:22.197Z,9.23
2023-01-04T00:48:22.135Z,9.23
2023-01-04T00:49:22.081Z,9.26
2023-01-04T00:50:22.044Z,9.22
2023-01-04T00:51:22.011Z,9.12
2023-01-04T00:52:21.956Z,9.04
2023-01-04T00:53:21.924Z,9.00
2023-01-04T00:54:21.872Z,8.98
2023-01-04T00:55:21.830Z,9.00
2023-01-04T00:56:21.793Z,8.97
2023-01-04T00:57:21.745Z,8.89
2023-01-04T00:58:21.699Z,8.93
2023-01-04T00:59:21.673Z,8.86
2023-01-04T01:00:21.614Z,9.01
2023-01-04T01:01:21.704Z,8.89
2023-01-04T01:02:21.695Z,8.97
2023-01-04T01:03:21.633Z,8.80
2023-01-04T01:04:21.602Z,8.80
2023-01-04T01:05:21.413Z,8.76
2023-01-04T01:06:21.356Z,8.70
2023-01-04T01:07:21.331Z,8.79
2023-01-04T01:08:21.275Z,8.75
2023-01-04T01:09:21.240Z,8.75
2023-01-04T01:10:21.185Z,8.65
2023-01-04T01:11:21.145Z,8.67
2023-01-04T01:12:21.100Z,8.60
2023-01-04T01:13:21.059Z,8.63
2023-01-04T01:14:21.040Z,8.73
2023-01-04T01:15:20.974Z,8.54
2023-01-04T01:16:44.480Z,8.63
2023-01-04T01:17:20.894Z,8.52
2023-01-04T01:18:20.849Z,8.49
2023-01-04T01:19:20.801Z,8.50
2023-01-04T01:20:20.758Z,8.40
2023-01-04T01:21:20.714Z,8.43
2023-01-04T01:22:20.683Z,8.45
2023-01-04T01:23:20.634Z,8.52
2023-01-04T01:24:20.618Z,8.52
2023-01-04T01:25:20.541Z,8.43
2023-01-04T01:26:20.526Z,8.47
2023-01-04T01:27:20.469Z,8.54
2023-01-04T01:28:20.426Z,8.37
2023-01-04T01:29:20.372Z,8.46
2023-01-04T01:30:20.327Z,8.43
2023-01-04T01:31:20.359Z,8.42
2023-01-04T01:32:20.237Z,8.50
2023-01-04T01:33:20.212Z,8.47
2023-01-04T01:34:20.163Z,8.40
2023-01-04T01:35:20.121Z,8.40
2023-01-04T01:36:20.091Z,8.37
2023-01-04T01:37:20.026Z,8.37
2023-01-04T01:38:19.985Z,8.34
2023-01-04T01:39:19.940Z,8.42
2023-01-04T01:40:19.909Z,8.29
2023-01-04T01:41:19.865Z,8.31
2023-01-04T01:42:19.817Z,8.28
2023-01-04T01:43:19.770Z,8.29
2023-01-04T01:44:19.723Z,8.25
2023-01-04T01:45:19.687Z,8.32
2023-01-04T01:46:19.691Z,8.27
2023-01-04T01:47:19.604Z,8.29
2023-01-04T01:48:19.561Z,8.42
2023-01-04T01:49:19.508Z,8.31
2023-01-04T01:50:19.464Z,8.24
2023-01-04T01:51:19.422Z,8.25
2023-01-04T01:52:19.408Z,8.25
2023-01-04T01:53:19.337Z,8.22
2023-01-04T01:54:19.295Z,8.32
2023-01-04T01:55:19.257Z,8.27
2023-01-04T01:56:19.209Z,8.24
2023-01-04T01:57:19.190Z,8.34
2023-01-04T01:58:19.139Z,8.25
2023-01-04T01:59:19.087Z,8.24
2023-01-04T02:00:19.047Z,8.28
2023-01-04T02:01:19.093Z,8.27
2023-01-04T02:02:19.173Z,8.28
2023-01-04T02:03:19.115Z,8.22
2023-01-04T02:04:18.864Z,8.29
2023-01-04T02:05:18.822Z,8.25
2023-01-04T02:06:18.775Z,8.29
2023-01-04T02:07:18.733Z,8.31
2023-01-04T02:08:18.698Z,8.29
2023-01-04T02:09:18.655Z,8.28
2023-01-04T02:10:18.621Z,8.28
2023-01-04T02:11:18.561Z,8.29
2023-01-04T02:12:18.523Z,8.28
2023-01-04T02:13:18.480Z,8.25
2023-01-04T02:14:18.429Z,8.21
2023-01-04T02:15:18.391Z,8.28
2023-01-04T02:16:18.393Z,8.25
2023-01-04T02:17:18.308Z,8.31
2023-01-04T02:18:18.261Z,8.27
2023-01-04T02:19:18.218Z,8.27
2023-01-04T02:20:18.176Z,8.21
2023-01-04T02:21:18.135Z,8.28
2023-01-04T02:22:18.096Z,8.32
2023-01-04T02:23:18.049Z,8.27
2023-01-04T02:24:18.000Z,8.25
2023-01-04T02:25:17.961Z,8.25
2023-01-04T02:26:17.921Z,8.37
2023-01-04T02:27:17.871Z,8.28
2023-01-04T02:28:17.844Z,8.21
2023-01-04T02:29:17.796Z,8.22
2023-01-04T02:30:17.745Z,8.27
2023-01-04T02:31:17.756Z,8.27
2023-01-04T02:32:17.668Z,8.31
2023-01-04T02:33:17.610Z,8.28
2023-01-04T02:34:17.585Z,8.24
2023-01-04T02:35:17.526Z,8.22
2023-01-04T02:36:17.483Z,8.24
2023-01-04T02:37:17.446Z,8.27
2023-01-04T02:38:17.394Z,8.37
2023-01-04T02:39:17.360Z,8.27
2023-01-04T02:40:17.312Z,8.27
2023-01-04T02:41:17.269Z,8.32
2023-01-04T02:42:17.224Z,8.27
2023-01-04T02:43:17.180Z,8.34
2023-01-04T02:44:17.154Z,8.29
2023-01-04T02:45:17.103Z,8.27
2023-01-04T02:46:17.113Z,8.29
2023-01-04T02:47:17.017Z,8.36
2023-01-04T02:48:16.966Z,8.31
2023-01-04T02:49:16.921Z,8.31
2023-01-04T02:50:16.895Z,8.39
2023-01-04T02:51:16.837Z,8.31
2023-01-04T02:52:16.793Z,8.32
2023-01-04T02:53:16.752Z,8.34
2023-01-04T02:54:16.703Z,8.28
2023-01-04T02:55:16.662Z,8.40
2023-01-04T02:56:16.639Z,8.36
2023-01-04T02:57:16.582Z,8.34
2023-01-04T02:58:16.534Z,8.32
2023-01-04T02:59:16.502Z,8.40
2023-01-04T03:00:16.457Z,8.39
2023-01-04T03:01:16.599Z,8.42
2023-01-04T03:02:16.500Z,8.36
2023-01-04T03:03:16.494Z,8.29
2023-01-04T03:04:16.286Z,8.32
2023-01-04T03:05:16.232Z,8.37
2023-01-04T03:06:16.232Z,8.47
2023-01-04T03:07:16.167Z,8.40
2023-01-04T03:08:16.111Z,8.32
2023-01-04T03:09:16.064Z,8.43
2023-01-04T03:10:16.018Z,8.49
2023-01-04T03:11:15.985Z,8.34
2023-01-04T03:12:15.984Z,8.42
2023-01-04T03:13:15.904Z,8.40
2023-01-04T03:14:30.813Z,8.37
2023-01-04T03:15:15.813Z,8.39
2023-01-04T03:16:15.787Z,8.37
2023-01-04T03:17:15.730Z,8.40
2023-01-04T03:18:15.690Z,8.39
2023-01-04T03:19:15.634Z,8.49
2023-01-04T03:20:15.589Z,8.42
2023-01-04T03:21:15.556Z,8.42
2023-01-04T03:22:15.513Z,8.49
2023-01-04T03:23:15.462Z,8.40
2023-01-04T03:24:15.446Z,8.45
2023-01-04T03:25:15.393Z,8.54
2023-01-04T03:26:15.351Z,8.46
2023-01-04T03:27:15.296Z,8.50
2023-01-04T03:28:15.254Z,8.50
2023-01-04T03:29:15.213Z,8.49
2023-01-04T03:30:15.160Z,8.55
2023-01-04T03:31:15.189Z,8.55
2023-01-04T03:32:15.074Z,8.55
2023-01-04T03:33:15.041Z,8.57
2023-01-04T03:34:14.994Z,8.57
2023-01-04T03:35:14.946Z,8.43
2023-01-04T03:36:14.904Z,8.61
2023-01-04T03:37:14.874Z,8.60
2023-01-04T03:38:14.819Z,8.63
2023-01-04T03:39:14.777Z,8.61
2023-01-04T03:40:14.739Z,8.58
2023-01-04T03:41:14.690Z,8.63
2023-01-04T03:42:14.647Z,8.57
2023-01-04T03:43:14.625Z,8.60
2023-01-04T03:44:14.564Z,8.63
2023-01-04T03:45:14.521Z,8.55
2023-01-04T03:46:14.492Z,8.67
2023-01-04T03:47:14.497Z,8.63
2023-01-04T03:48:14.391Z,8.63
2023-01-04T03:49:14.375Z,8.50
2023-01-04T03:50:14.312Z,8.64
2023-01-04T03:51:14.269Z,8.60
2023-01-04T03:52:14.234Z,8.57
2023-01-04T03:53:14.182Z,8.60
2023-01-04T03:54:14.142Z,8.61
2023-01-04T03:55:14.103Z,8.70
2023-01-04T03:56:14.050Z,8.63
2023-01-04T03:57:14.010Z,8.65
2023-01-04T03:58:13.965Z,8.73
2023-01-04T03:59:13.925Z,8.76
2023-01-04T04:00:13.898Z,8.73
2023-01-04T04:01:13.995Z,8.76
2023-01-04T04:02:13.975Z,8.76
2023-01-04T04:03:13.758Z,8.76
2023-01-04T04:04:13.762Z,8.73
2023-01-04T04:05:13.669Z,8.78
2023-01-04T04:06:13.639Z,8.86
2023-01-04T04:07:13.584Z,8.85
2023-01-04T04:08:13.543Z,8.83
2023-01-04T04:09:13.503Z,8.89
2023-01-04T04:10:13.466Z,8.88
2023-01-04T04:11:13.421Z,8.97
2023-01-04T04:12:13.382Z,8.96
2023-01-04T04:13:13.331Z,8.96
2023-01-04T04:14:13.286Z,9.15
2023-01-04T04:15:13.246Z,9.20
2023-01-04T04:16:13.233Z,9.30
2023-01-04T04:17:13.180Z,9.30
2023-01-04T04:18:13.121Z,9.35
2023-01-04T04:19:13.077Z,9.35
2023-01-04T04:20:13.042Z,9.40
2023-01-04T04:21:12.998Z,9.42
2023-01-04T04:22:12.969Z,9.42
2023-01-04T04:23:12.913Z,9.45
2023-01-04T04:24:12.866Z,9.45
2023-01-04T04:25:12.822Z,9.44
2023-01-04T04:26:12.781Z,9.53
2023-01-04T04:27:12.748Z,9.55
2023-01-04T04:28:12.705Z,9.67
2023-01-04T04:29:12.664Z,9.65
2023-01-04T04:30:12.622Z,9.60
2023-01-04T04:31:12.648Z,9.68
2023-01-04T04:32:12.607Z,9.71
2023-01-04T04:33:12.488Z,9.74
2023-01-04T04:34:12.459Z,9.71
2023-01-04T04:35:12.416Z,9.77
2023-01-04T04:36:12.361Z,9.88
2023-01-04T04:37:12.325Z,9.89
2023-01-04T04:38:12.274Z,9.89
2023-01-04T04:39:12.248Z,9.88
2023-01-04T04:40:12.193Z,9.89
2023-01-04T04:41:12.149Z,9.83
2023-01-04T04:42:12.105Z,9.91
2023-01-04T04:43:12.068Z,9.91
2023-01-04T04:44:12.031Z,9.96
2023-01-04T04:45:11.995Z,9.91
2023-01-04T04:46:12.035Z,9.93
2023-01-04T04:47:11.900Z,9.96
2023-01-04T04:48:11.859Z,9.99
2023-01-04T04:49:11.827Z,10.11
2023-01-04T04:50:11.768Z,10.01
2023-01-04T04:51:11.742Z,10.07
2023-01-04T04:52:11.699Z,10.13
2023-01-04T04:53:11.647Z,10.10
2023-01-04T04:54:11.608Z,10.24
2023-01-04T04:55:11.566Z,10.17
2023-01-04T04:56:11.521Z,10.20
2023-01-04T04:57:11.486Z,10.16
2023-01-04T04:58:11.453Z,10.22
2023-01-04T04:59:11.397Z,10.35
2023-01-04T05:00:11.361Z,10.28
2023-01-04T05:01:11.386Z,10.25
2023-01-04T05:02:11.543Z,10.25
2023-01-04T05:03:11.388Z,10.26
2023-01-04T05:04:11.197Z,10.36
2023-01-04T05:05:11.144Z,10.35
2023-01-04T05:06:11.102Z,10.34
2023-01-04T05:07:12.731Z,10.38
2023-01-04T05:08:11.027Z,10.36
2023-01-04T05:09:10.977Z,10.38
2023-01-04T05:10:10.951Z,10.32
2023-01-04T05:11:10.896Z,10.35
2023-01-04T05:12:10.856Z,10.51
2023-01-04T05:13:10.806Z,10.38
2023-01-04T05:14:10.769Z,10.35
2023-01-04T05:15:10.727Z,10.47
2023-01-04T05:16:10.806Z,10.44
2023-01-04T05:17:10.692Z,10.36
2023-01-04T05:18:10.603Z,10.36
2023-01-04T05:19:10.562Z,10.42
2023-01-04T05:20:10.544Z,10.35
2023-01-04T05:21:10.507Z,10.43
2023-01-04T05:22:10.445Z,10.47
2023-01-04T05:23:10.392Z,10.54
2023-01-04T05:24:10.355Z,10.58
2023-01-04T05:25:10.317Z,10.58
2023-01-04T05:26:10.271Z,10.46
2023-01-04T05:27:10.239Z,10.47
2023-01-04T05:28:10.197Z,10.51
2023-01-04T05:29:18.547Z,10.57
2023-01-04T05:30:10.100Z,10.62
2023-01-04T05:31:10.069Z,10.60
2023-01-04T05:32:10.072Z,10.65
2023-01-04T05:33:09.990Z,10.63
2023-01-04T05:34:09.935Z,10.70
2023-01-04T05:35:09.895Z,10.70
2023-01-04T05:36:09.855Z,10.87
2023-01-04T05:37:09.811Z,10.81
2023-01-04T05:38:09.772Z,10.80
2023-01-04T05:39:09.751Z,10.69
2023-01-04T05:40:09.686Z,10.84
2023-01-04T05:41:09.644Z,10.76
2023-01-04T05:42:09.610Z,10.70
2023-01-04T05:43:09.561Z,10.80
2023-01-04T05:44:09.527Z,10.90
2023-01-04T05:45:09.512Z,10.84
2023-01-04T05:46:09.504Z,10.84
2023-01-04T05:47:14.662Z,10.84
2023-01-04T05:48:09.356Z,10.86
2023-01-04T05:49:09.314Z,10.84
2023-01-04T05:50:09.285Z,11.01
2023-01-04T05:51:09.244Z,11.06
2023-01-04T05:52:09.192Z,11.02
2023-01-04T05:53:09.147Z,10.98
2023-01-04T05:54:09.106Z,10.93
2023-01-04T05:55:09.063Z,11.01
2023-01-04T05:56:09.026Z,11.08
2023-01-04T05:57:09.013Z,11.02
2023-01-04T05:58:08.943Z,10.87
2023-01-04T05:59:08.899Z,10.95
2023-01-04T06:00:08.877Z,11.05
2023-01-04T06:01:08.854Z,10.99
2023-01-04T06:02:08.836Z,11.08
2023-01-04T06:03:08.888Z,11.01
2023-01-04T06:04:08.804Z,11.09
2023-01-04T06:05:08.665Z,11.09
2023-01-04T06:06:08.610Z,11.05
2023-01-04T06:07:08.581Z,11.17
2023-01-04T06:08:08.533Z,11.12
2023-01-04T06:09:08.485Z,11.08
2023-01-04T06:10:08.478Z,11.13
2023-01-04T06:11:08.420Z,11.13
2023-01-04T06:12:08.369Z,11.08
2023-01-04T06:13:08.354Z,11.09
2023-01-04T06:14:08.277Z,11.16
2023-01-04T06:15:08.233Z,11.13
2023-01-04T06:16:08.198Z,11.16
2023-01-04T06:17:08.252Z,11.23
2023-01-04T06:18:13.087Z,11.26
2023-01-04T06:19:08.073Z,11.30
2023-01-04T06:20:08.032Z,11.27
2023-01-04T06:21:07.988Z,11.26
2023-01-04T06:22:07.969Z,11.33
2023-01-04T06:23:07.909Z,11.23
2023-01-04T06:24:07.874Z,11.28
2023-01-04T06:25:07.823Z,11.30
2023-01-04T06:26:07.782Z,11.23
2023-01-04T06:27:07.748Z,11.31
2023-01-04T06:28:07.717Z,11.26
2023-01-04T06:29:07.660Z,11.26
2023-01-04T06:30:07.642Z,11.19
2023-01-04T06:31:07.691Z,11.44
2023-01-04T06:32:07.536Z,11.35
2023-01-04T06:33:07.512Z,11.31
2023-01-04T06:34:07.469Z,11.27
2023-01-04T06:35:07.432Z,11.36
2023-01-04T06:36:07.377Z,11.30
2023-01-04T06:37:07.327Z,11.30
2023-01-04T06:38:07.303Z,11.35
2023-01-04T06:39:07.258Z,11.28
2023-01-04T06:40:07.221Z,11.36
2023-01-04T06:41:07.165Z,11.35
2023-01-04T06:42:07.499Z,11.41
2023-01-04T06:43:07.085Z,11.31
2023-01-04T06:44:07.047Z,11.36
2023-01-04T06:45:07.003Z,11.36
2023-01-04T06:46:07.009Z,11.36
2023-01-04T06:47:06.932Z,11.31
2023-01-04T06:48:09.220Z,11.35
2023-01-04T06:49:06.835Z,11.38
2023-01-04T06:50:06.798Z,11.42
2023-01-04T06:51:06.752Z,11.39
2023-01-04T06:52:06.720Z,11.44
2023-01-04T06:53:06.683Z,11.42
2023-01-04T06:54:06.632Z,11.48
2023-01-04T06:55:06.600Z,11.41
2023-01-04T06:56:06.555Z,11.41
2023-01-04T06:57:06.512Z,11.46
2023-01-04T06:58:06.484Z,11.53
2023-01-04T06:59:06.437Z,11.54
2023-01-04T07:00:06.432Z,11.41
2023-01-04T07:01:06.402Z,11.45
2023-01-04T07:02:06.397Z,11.49
2023-01-04T07:03:14.717Z,11.46
2023-01-04T07:04:06.232Z,11.46
2023-01-04T07:05:06.269Z,11.54
2023-01-04T07:06:06.215Z,11.45
2023-01-04T07:07:06.094Z,11.45
2023-01-04T07:08:08.488Z,11.48
2023-01-04T07:09:06.026Z,11.54
2023-01-04T07:10:09.806Z,11.49
2023-01-04T07:11:05.941Z,11.35
2023-01-04T07:12:05.952Z,11.62
2023-01-04T07:13:05.853Z,11.49
2023-01-04T07:14:05.808Z,11.48
2023-01-04T07:15:38.740Z,11.57
2023-01-04T07:16:05.747Z,11.57
2023-01-04T07:17:05.703Z,11.63
2023-01-04T07:18:05.654Z,11.70
2023-01-04T07:19:05.603Z,11.67
2023-01-04T07:20:05.567Z,11.84
2023-01-04T07:21:05.520Z,11.74
2023-01-04T07:22:05.499Z,11.82
2023-01-04T07:23:05.469Z,11.88
2023-01-04T07:24:05.400Z,11.84
2023-01-04T07:25:05.355Z,11.82
2023-01-04T07:26:05.314Z,11.90
2023-01-04T07:27:05.276Z,11.94
2023-01-04T07:28:05.235Z,11.85
2023-01-04T07:29:05.211Z,11.79
2023-01-04T07:30:05.149Z,11.84
2023-01-04T07:31:05.185Z,11.90
2023-01-04T07:32:10.224Z,11.90
2023-01-04T07:33:05.025Z,11.88
2023-01-04T07:34:04.986Z,11.88
2023-01-04T07:35:04.964Z,11.96
2023-01-04T07:36:04.911Z,11.93
2023-01-04T07:37:04.885Z,11.98
2023-01-04T07:38:04.833Z,12.00
2023-01-04T07:39:04.781Z,11.88
2023-01-04T07:40:04.747Z,11.96
2023-01-04T07:41:04.736Z,11.96
2023-01-04T07:42:04.657Z,11.93
2023-01-04T07:43:04.616Z,11.98
2023-01-04T07:44:04.579Z,12.03
2023-01-04T07:45:04.534Z,12.00
2023-01-04T07:46:04.640Z,12.03
2023-01-04T07:47:04.464Z,11.97
2023-01-04T07:48:04.417Z,12.08
2023-01-04T07:49:04.388Z,12.08
2023-01-04T07:50:04.331Z,12.15
2023-01-04T07:51:04.292Z,12.16
2023-01-04T07:52:04.261Z,12.12
2023-01-04T07:53:04.220Z,12.19
2023-01-04T07:54:04.165Z,12.23
2023-01-04T07:55:04.142Z,12.16
2023-01-04T07:56:04.087Z,12.22
2023-01-04T07:57:04.060Z,12.13
2023-01-04T07:58:04.005Z,12.11
2023-01-04T07:59:03.962Z,12.19
2023-01-04T08:00:03.920Z,12.21
2023-01-04T08:01:03.891Z,12.11
2023-01-04T08:02:03.963Z,12.25
2023-01-04T08:03:03.872Z,12.18
2023-01-04T08:04:03.813Z,12.26
2023-01-04T08:05:03.831Z,12.22
2023-01-04T08:06:03.697Z,12.22
2023-01-04T08:07:03.672Z,12.25
2023-01-04T08:08:03.647Z,12.19
2023-01-04T08:09:03.565Z,12.25
2023-01-04T08:10:03.521Z,12.31
2023-01-04T08:11:03.473Z,12.22
2023-01-04T08:12:03.441Z,12.21
2023-01-04T08:13:03.416Z,12.30
2023-01-04T08:14:03.389Z,12.30
2023-01-04T08:15:03.308Z,12.26
2023-01-04T08:16:03.356Z,12.31
2023-01-04T08:17:03.239Z,12.26
2023-01-04T08:18:03.201Z,12.30
2023-01-04T08:19:03.167Z,12.18
2023-01-04T08:20:03.132Z,12.31
2023-01-04T08:21:03.092Z,12.26
2023-01-04T08:22:03.043Z,12.30
2023-01-04T08:23:02.985Z,12.31
2023-01-04T08:24:02.947Z,12.21
2023-01-04T08:25:02.900Z,12.22
2023-01-04T08:26:02.888Z,12.25
2023-01-04T08:27:02.851Z,12.25
2023-01-04T08:28:02.791Z,12.23
2023-01-04T08:29:02.737Z,12.21
2023-01-04T08:30:02.718Z,12.23
2023-01-04T08:31:02.705Z,12.30
2023-01-04T08:32:02.677Z,12.25
2023-01-04T08:33:02.593Z,12.26
2023-01-04T08:34:02.537Z,12.26
2023-01-04T08:35:02.508Z,12.37
2023-01-04T08:36:02.469Z,12.29
2023-01-04T08:37:02.424Z,12.33
2023-01-04T08:38:28.509Z,12.40
2023-01-04T08:39:02.593Z,12.25
2023-01-04T08:40:02.295Z,12.37
2023-01-04T08:41:16.642Z,12.30
2023-01-04T08:42:14.367Z,12.36
2023-01-04T08:43:02.165Z,12.33
2023-01-04T08:44:02.136Z,12.33
2023-01-04T08:45:02.411Z,12.40
2023-01-04T08:46:02.107Z,12.43
2023-01-04T08:47:02.236Z,12.46
2023-01-04T08:48:01.983Z,12.41
2023-01-04T08:49:01.923Z,12.40
2023-01-04T08:50:08.233Z,12.40
2023-01-04T08:51:01.856Z,12.44
2023-01-04T08:52:01.813Z,12.49
2023-01-04T08:53:01.778Z,12.49
2023-01-04T08:54:01.735Z,12.44
2023-01-04T08:55:05.564Z,12.40
2023-01-04T08:56:01.648Z,12.46
2023-01-04T08:57:01.599Z,12.44
2023-01-04T08:58:01.567Z,12.41
2023-01-04T08:59:01.530Z,12.40
2023-01-04T09:00:01.480Z,12.52
2023-01-04T09:01:01.433Z,12.44
2023-01-04T09:02:05.673Z,12.48
2023-01-04T09:03:01.450Z,12.55
2023-01-04T09:04:01.365Z,12.49
2023-01-04T09:05:01.342Z,12.41
2023-01-04T09:06:01.244Z,12.51
2023-01-04T09:07:01.190Z,12.46
2023-01-04T09:08:01.157Z,12.43
2023-01-04T09:09:01.118Z,12.48
2023-01-04T09:10:01.169Z,12.49
2023-01-04T09:11:01.030Z,12.54
2023-01-04T09:12:00.985Z,12.54
2023-01-04T09:13:00.959Z,12.48
2023-01-04T09:14:08.050Z,12.54
2023-01-04T09:15:00.890Z,12.56
2023-01-04T09:16:00.847Z,12.52
2023-01-04T09:17:00.781Z,12.51
2023-01-04T09:19:00.708Z,12.59
2023-01-04T09:20:00.668Z,12.62
2023-01-04T09:21:00.633Z,12.67
2023-01-04T09:22:00.631Z,12.62
2023-01-04T09:23:00.541Z,12.62
2023-01-04T09:24:00.507Z,12.61
2023-01-04T09:25:00.486Z,12.71
2023-01-04T09:26:05.638Z,12.71
2023-01-04T09:27:00.383Z,12.66
2023-01-04T09:28:00.342Z,12.66
2023-01-04T09:29:00.317Z,12.66
2023-01-04T09:30:00.253Z,12.69
2023-01-04T09:31:00.333Z,12.73
2023-01-04T09:32:00.326Z,12.79
2023-01-04T09:33:00.156Z,12.71
2023-01-04T09:34:17.526Z,12.76
2023-01-04T09:35:00.073Z,12.62
2023-01-04T09:36:00.023Z,12.80
2023-01-04T09:36:59.986Z,12.79
2023-01-04T09:37:59.926Z,12.76
2023-01-04T09:38:59.902Z,12.81
2023-01-04T09:39:59.853Z,12.81
2023-01-04T09:40:59.806Z,12.89
2023-01-04T09:41:59.820Z,12.81
2023-01-04T09:43:21.530Z,12.80
2023-01-04T09:43:59.698Z,12.87
2023-01-04T09:45:26.418Z,12.85
2023-01-04T09:45:59.601Z,12.77
2023-01-04T09:46:59.631Z,12.85
2023-01-04T09:47:59.530Z,12.88
2023-01-04T09:48:59.480Z,12.80
2023-01-04T09:49:59.443Z,12.89
2023-01-04T09:50:59.417Z,12.92
2023-01-04T09:51:59.361Z,12.87
2023-01-04T09:52:59.325Z,12.89
2023-01-04T09:53:59.291Z,12.94
2023-01-04T09:55:02.905Z,12.91
2023-01-04T09:55:59.197Z,12.88
2023-01-04T09:56:59.181Z,12.76
2023-01-04T09:57:59.122Z,12.85
2023-01-04T09:58:59.093Z,12.84
2023-01-04T09:59:59.035Z,12.85
2023-01-04T10:00:59.046Z,12.76
2023-01-04T10:01:59.243Z,12.85
2023-01-04T10:02:59.057Z,12.79
2023-01-04T10:03:58.876Z,12.84
2023-01-04T10:04:58.831Z,12.91
2023-01-04T10:05:58.810Z,12.87
2023-01-04T10:07:04.749Z,12.70
2023-01-04T10:07:58.716Z,12.55
2023-01-04T10:08:58.675Z,12.55
2023-01-04T10:09:58.631Z,12.48
2023-01-04T10:10:58.604Z,12.48
2023-01-04T10:11:58.551Z,12.44
2023-01-04T10:13:00.187Z,12.40
2023-01-04T10:13:58.481Z,12.43
2023-01-04T10:14:58.430Z,12.34
2023-01-04T10:15:58.412Z,12.49
2023-01-04T10:17:12.556Z,12.36
2023-01-04T10:19:23.880Z,12.33
2023-01-04T10:20:16.251Z,12.44
2023-01-04T10:21:58.233Z,12.48
2023-01-04T10:22:58.118Z,12.46
2023-01-04T10:23:58.062Z,12.41
2023-01-04T10:24:58.051Z,12.51
2023-01-04T10:25:57.980Z,12.43
2023-01-04T10:26:57.955Z,12.40
2023-01-04T10:27:57.896Z,12.43
2023-01-04T10:28:57.868Z,12.37
2023-01-04T10:29:57.818Z,12.25
2023-01-04T10:30:57.787Z,12.18
2023-01-04T10:31:57.861Z,12.18
2023-01-04T10:32:57.722Z,12.13
2023-01-04T10:33:57.650Z,12.01
2023-01-04T10:34:57.613Z,11.96
2023-01-04T10:35:57.572Z,12.04
2023-01-04T10:36:57.536Z,11.98
2023-01-04T10:37:57.494Z,12.00
2023-01-04T10:38:57.448Z,11.96
2023-01-04T10:39:57.417Z,11.98
2023-01-04T10:40:57.369Z,11.88
2023-01-04T10:41:57.327Z,11.93
2023-01-04T10:42:57.306Z,11.98
2023-01-04T10:44:11.599Z,11.94
2023-01-04T10:44:57.219Z,11.87
2023-01-04T10:45:57.164Z,12.00
2023-01-04T10:46:57.157Z,11.97
2023-01-04T10:47:57.085Z,11.98
2023-01-04T10:48:57.061Z,12.00
2023-01-04T10:49:57.006Z,12.01
2023-01-04T10:50:56.953Z,11.97
2023-01-04T10:51:56.929Z,12.05
2023-01-04T10:52:56.874Z,12.08
2023-01-04T10:53:56.852Z,12.07
2023-01-04T10:54:56.806Z,12.07
2023-01-04T10:56:25.209Z,12.12
2023-01-04T10:56:56.709Z,12.12
2023-01-04T10:57:56.668Z,12.13
2023-01-04T10:58:56.632Z,12.12
2023-01-04T10:59:56.610Z,12.11
2023-01-04T11:00:56.618Z,12.16
2023-01-04T11:01:56.730Z,12.07
2023-01-04T11:02:56.550Z,12.11
2023-01-04T11:03:56.438Z,12.08
2023-01-04T11:04:56.398Z,12.21
2023-01-04T11:05:56.345Z,12.15
2023-01-04T11:06:56.306Z,12.16
2023-01-04T11:07:56.255Z,12.13
2023-01-04T11:08:56.217Z,12.11
2023-01-04T11:09:56.190Z,12.16
2023-01-04T11:10:56.135Z,12.07
2023-01-04T11:11:56.103Z,12.15
2023-01-04T11:12:56.061Z,12.21
2023-01-04T11:13:56.008Z,12.16
2023-01-04T11:14:55.987Z,12.19
2023-01-04T11:15:56.047Z,12.18
2023-01-04T11:16:55.921Z,12.21
2023-01-04T11:17:55.861Z,12.30
2023-01-04T11:18:55.806Z,12.26
2023-01-04T11:19:55.776Z,12.31
2023-01-04T11:20:55.730Z,12.21
2023-01-04T11:21:55.681Z,12.25
2023-01-04T11:22:55.689Z,12.38
2023-01-04T11:23:59.721Z,12.29
2023-01-04T11:25:34.600Z,12.41
2023-01-04T11:25:56.576Z,12.43
2023-01-04T11:26:55.492Z,12.41
2023-01-04T11:27:55.574Z,12.33
2023-01-04T11:28:55.402Z,12.34
2023-01-04T11:29:55.370Z,12.36
2023-01-04T11:30:55.329Z,12.51
2023-01-04T11:31:55.322Z,12.44
2023-01-04T11:32:55.238Z,12.46
2023-01-04T11:33:55.194Z,12.52
2023-01-04T11:34:55.164Z,12.44
2023-01-04T11:35:55.148Z,12.43
2023-01-04T11:36:55.075Z,12.49
2023-01-04T11:37:55.032Z,12.48
2023-01-04T11:38:54.997Z,12.46
2023-01-04T11:39:54.966Z,12.46
2023-01-04T11:40:54.917Z,12.55
2023-01-04T11:42:00.600Z,12.62
2023-01-04T11:42:54.848Z,12.54
2023-01-04T11:43:54.800Z,12.56
2023-01-04T11:44:54.750Z,12.51
2023-01-04T11:45:54.781Z,12.55
2023-01-04T11:46:54.671Z,12.59
2023-01-04T11:47:54.650Z,12.52
2023-01-04T11:48:54.592Z,12.52
2023-01-04T11:49:54.557Z,12.58
2023-01-04T11:50:54.523Z,12.54
2023-01-04T11:51:54.467Z,12.54
2023-01-04T11:52:54.427Z,12.55
2023-01-04T11:53:54.393Z,12.59
2023-01-04T11:54:54.344Z,12.56
2023-01-04T11:55:54.308Z,12.56
2023-01-04T11:56:54.260Z,12.61
2023-01-04T11:57:54.219Z,12.56
2023-01-04T11:58:54.192Z,12.55
2023-01-04T11:59:54.149Z,12.54
2023-01-04T12:00:54.122Z,12.59
2023-01-04T12:01:54.167Z,12.69
2023-01-04T12:03:02.363Z,12.63
2023-01-04T12:03:53.977Z,12.69
2023-01-04T12:04:53.945Z,12.74
2023-01-04T12:05:53.925Z,12.70
2023-01-04T12:06:53.862Z,12.67
2023-01-04T12:07:53.833Z,12.66
2023-01-04T12:08:53.796Z,12.67
2023-01-04T12:09:53.754Z,12.69
2023-01-04T12:10:53.706Z,12.66
2023-01-04T12:11:53.664Z,12.74
2023-01-04T12:12:53.627Z,12.66
2023-01-04T12:13:53.583Z,12.74
2023-01-04T12:14:53.533Z,12.71
2023-01-04T12:15:53.611Z,12.81
2023-01-04T12:16:53.462Z,12.70
2023-01-04T12:17:53.415Z,12.80
2023-01-04T12:18:53.395Z,12.74
2023-01-04T12:19:53.360Z,12.88
2023-01-04T12:20:53.303Z,12.74
2023-01-04T12:21:53.269Z,12.81
2023-01-04T12:22:53.214Z,12.77
2023-01-04T12:23:53.178Z,12.80
2023-01-04T12:25:00.103Z,12.70
2023-01-04T12:25:53.118Z,12.74
2023-01-04T12:26:53.054Z,12.62
2023-01-04T12:27:53.007Z,12.73
2023-01-04T12:28:52.965Z,12.70
2023-01-04T12:29:52.929Z,12.70
2023-01-04T12:30:52.907Z,12.74
2023-01-04T12:31:52.864Z,12.67
2023-01-04T12:32:52.805Z,12.70
2023-01-04T12:33:52.803Z,12.69
2023-01-04T12:34:52.729Z,12.74
2023-01-04T12:35:52.682Z,12.70
2023-01-04T12:36:52.662Z,12.67
2023-01-04T12:37:52.619Z,12.73
2023-01-04T12:38:52.606Z,12.67
2023-01-04T12:39:52.519Z,12.70
2023-01-04T12:40:52.476Z,12.63
2023-01-04T12:41:52.468Z,12.70
2023-01-04T12:42:52.451Z,12.59
2023-01-04T12:43:52.358Z,12.62
2023-01-04T12:44:52.453Z,12.66
2023-01-04T12:45:52.304Z,12.52
2023-01-04T12:46:52.252Z,12.54
2023-01-04T12:47:52.208Z,12.56
2023-01-04T12:48:52.203Z,12.51
2023-01-04T12:49:52.114Z,12.59
2023-01-04T12:50:59.251Z,12.66
2023-01-04T12:52:12.844Z,12.69
2023-01-04T12:53:19.409Z,12.61
2023-01-04T12:53:51.965Z,12.67
2023-01-04T12:54:51.927Z,12.67
2023-01-04T12:55:52.069Z,12.70
2023-01-04T12:56:51.832Z,12.71
2023-01-04T12:57:51.790Z,12.74
2023-01-04T12:59:24.060Z,12.81
2023-01-04T12:59:51.729Z,12.66
2023-01-04T13:00:51.679Z,12.71
2023-01-04T13:01:51.744Z,12.77
2023-01-04T13:02:52.085Z,12.71
2023-01-04T13:03:51.620Z,12.79
2023-01-04T13:05:09.415Z,12.79